Time;durP1;ratioP1;P1;durP2;ratioP2;P2;SDS_P1;SDS_P2;PMS_P1;PMS_P2;Temp;Humidity;BMP_temperature;BMP_pressure;BME280_temperature;BME280_humidity;BME280_pressure;Samples;Min_cycle;Max_cycle;Signal;HPM_P1;HPM_P2
2024/01/30 00:03:08;;;;;;;8.43;7.35;;;9.40;89.80;;;;;;10437684;28;20297;-62
2024/01/30 00:08:13;;;;;;;10.13;7.60;;;9.30;89.10;;;;;;10420630;28;20227;-61
2024/01/30 00:13:19;;;;;;;8.10;7.30;;;9.30;89.70;;;;;;10428818;28;20270;-61
2024/01/30 00:18:22;;;;;;;9.20;7.70;;;9.20;89.40;;;;;;10433552;28;20239;-62
2024/01/30 00:23:27;;;;;;;11.13;7.90;;;9.20;89.30;;;;;;10427162;28;20305;-62
2024/01/30 00:28:31;;;;;;;9.97;7.90;;;9.20;89.20;;;;;;10414199;28;20201;-61
2024/01/30 00:33:34;;;;;;;8.45;7.47;;;9.10;89.20;;;;;;10426061;28;20220;-62
2024/01/30 00:38:40;;;;;;;10.75;8.43;;;9.10;89.60;;;;;;10429188;28;20313;-62
2024/01/30 00:43:44;;;;;;;11.32;8.60;;;9.10;89.80;;;;;;10418123;28;20252;-61
2024/01/30 00:48:47;;;;;;;8.87;7.43;;;9.10;89.60;;;;;;10415686;28;20204;-61
2024/01/30 00:53:52;;;;;;;10.50;8.67;;;9.10;89.70;;;;;;10424724;28;20296;-62
2024/01/30 00:58:56;;;;;;;11.40;8.10;;;9.10;90.00;;;;;;10426593;28;20234;-62
2024/01/30 01:04:00;;;;;;;10.27;8.03;;;9.20;89.90;;;;;;10429557;28;20273;-59
2024/01/30 01:09:05;;;;;;;10.73;8.50;;;9.20;89.70;;;;;;10430110;28;20258;-60
2024/01/30 01:14:09;;;;;;;12.63;8.70;;;9.20;90.00;;;;;;10427807;28;20243;-60
2024/01/30 01:19:12;;;;;;;10.07;8.40;;;9.20;90.10;;;;;;10427697;28;20199;-60
2024/01/30 01:24:17;;;;;;;10.98;8.32;;;9.20;90.30;;;;;;10430286;28;20686;-60
2024/01/30 01:29:28;;;;;;;10.27;8.53;;;9.20;90.00;;;;;;10427520;28;20542;-60
2024/01/30 01:34:31;;;;;;;11.70;9.90;;;9.20;90.00;;;;;;10421382;28;20216;-59
2024/01/30 01:39:36;;;;;;;10.20;8.70;;;9.20;89.90;;;;;;10430392;28;20732;-60
2024/01/30 01:44:40;;;;;;;9.95;8.52;;;9.20;90.10;;;;;;10420040;28;20645;-59
2024/01/30 01:49:44;;;;;;;10.40;9.40;;;9.20;90.00;;;;;;10426397;28;20199;-60
2024/01/30 01:54:49;;;;;;;11.23;8.57;;;9.20;90.50;;;;;;10428746;28;20746;-60
2024/01/30 01:59:53;;;;;;;11.85;8.82;;;9.20;90.00;;;;;;10421359;28;20280;-60
2024/01/30 02:04:57;;;;;;;10.55;9.00;;;9.20;90.20;;;;;;10419657;28;20288;-59
2024/01/30 02:10:03;;;;;;;11.50;9.00;;;9.20;90.20;;;;;;10421477;28;20204;-60
2024/01/30 02:15:07;;;;;;;11.40;8.93;;;9.10;90.10;;;;;;10425304;28;20281;-59
2024/01/30 02:20:12;;;;;;;12.73;9.02;;;9.10;90.20;;;;;;10430012;28;20200;-59
2024/01/30 02:25:18;;;;;;;10.43;8.73;;;9.10;90.20;;;;;;10432627;28;20250;-59
2024/01/30 02:30:21;;;;;;;10.83;8.80;;;9.10;90.20;;;;;;10428013;28;20266;-60
2024/01/30 02:35:25;;;;;;;12.23;8.97;;;9.10;90.40;;;;;;10437947;28;20270;-60
2024/01/30 02:40:30;;;;;;;11.87;9.07;;;9.00;90.20;;;;;;10424260;28;20253;-61
2024/01/30 02:45:34;;;;;;;11.47;9.27;;;9.00;90.40;;;;;;10425130;28;20223;-60
2024/01/30 02:50:37;;;;;;;10.63;8.87;;;9.00;90.40;;;;;;10434120;28;20248;-59
2024/01/30 02:55:42;;;;;;;9.60;8.60;;;8.90;90.40;;;;;;10431334;28;20212;-60
2024/01/30 03:00:46;;;;;;;10.70;9.03;;;8.90;90.50;;;;;;10431657;28;20222;-60
2024/01/30 03:05:49;;;;;;;10.27;8.45;;;8.90;90.30;;;;;;10429082;28;20258;-60
2024/01/30 03:10:54;;;;;;;11.90;8.43;;;8.90;90.50;;;;;;10435241;28;20204;-60
2024/01/30 03:15:58;;;;;;;10.63;9.00;;;8.90;90.50;;;;;;10426926;28;20246;-58
2024/01/30 03:21:01;;;;;;;11.70;8.77;;;8.90;91.00;;;;;;10436993;28;20730;-60
2024/01/30 03:26:06;;;;;;;12.33;9.20;;;8.90;90.80;;;;;;10424956;28;20227;-60
2024/01/30 03:31:10;;;;;;;8.87;7.93;;;8.90;90.60;;;;;;10432905;28;20208;-59
2024/01/30 03:36:14;;;;;;;10.13;8.00;;;8.90;90.70;;;;;;10418399;28;20565;-60
2024/01/30 03:41:18;;;;;;;10.90;8.20;;;8.90;90.70;;;;;;10424744;28;20209;-60
2024/01/30 03:46:22;;;;;;;8.63;7.70;;;8.90;90.60;;;;;;10413114;28;20224;-60
2024/01/30 03:51:26;;;;;;;9.77;8.25;;;8.80;91.00;;;;;;10401508;28;20196;-59
2024/01/30 03:56:31;;;;;;;9.25;8.18;;;8.80;90.70;;;;;;10413477;28;20224;-60
2024/01/30 04:01:34;;;;;;;9.93;8.13;;;8.80;90.70;;;;;;10409827;28;20258;-59
2024/01/30 04:06:38;;;;;;;10.93;8.15;;;8.80;90.90;;;;;;10402572;28;21915;-60
2024/01/30 04:11:43;;;;;;;11.17;9.10;;;8.80;90.90;;;;;;10417291;28;20713;-59
2024/01/30 04:16:47;;;;;;;13.20;9.30;;;8.80;91.20;;;;;;10428492;28;20219;-60
2024/01/30 04:21:50;;;;;;;13.02;9.52;;;8.80;90.90;;;;;;10423944;28;20200;-60
2024/01/30 04:26:55;;;;;;;13.68;10.05;;;8.80;90.90;;;;;;10423686;28;20246;-60
2024/01/30 04:31:59;;;;;;;12.53;9.80;;;8.80;91.10;;;;;;10428702;28;20261;-60
2024/01/30 04:37:02;;;;;;;11.77;9.53;;;8.80;91.10;;;;;;10423339;28;20716;-60
2024/01/30 04:42:08;;;;;;;11.13;8.93;;;8.80;91.10;;;;;;10423897;28;20204;-60
2024/01/30 04:47:12;;;;;;;13.70;9.47;;;8.80;91.20;;;;;;10421564;28;20566;-60
2024/01/30 04:52:15;;;;;;;12.93;9.17;;;8.80;91.20;;;;;;10418139;28;20277;-58
2024/01/30 04:57:20;;;;;;;10.48;8.07;;;8.80;91.20;;;;;;10428268;28;20612;-60
2024/01/30 05:02:24;;;;;;;10.53;8.03;;;8.80;91.30;;;;;;10417638;28;20232;-59
2024/01/30 05:07:27;;;;;;;11.53;8.50;;;8.90;91.40;;;;;;10422297;28;20253;-60
2024/01/30 05:12:32;;;;;;;12.75;9.63;;;8.90;91.30;;;;;;10424975;28;20279;-59
2024/01/30 05:17:36;;;;;;;10.03;8.23;;;8.90;91.30;;;;;;10425740;28;20200;-60
2024/01/30 05:22:44;;;;;;;13.00;8.90;;;8.90;91.40;;;;;;10410587;28;20249;-59
2024/01/30 05:27:49;;;;;;;10.83;9.63;;;8.90;91.50;;;;;;10402934;28;20201;-61
2024/01/30 05:32:53;;;;;;;12.07;9.60;;;8.90;91.70;;;;;;10415480;28;20793;-61
2024/01/30 05:37:57;;;;;;;12.43;9.63;;;8.90;91.50;;;;;;10397671;28;20678;-59
2024/01/30 05:43:02;;;;;;;10.97;9.30;;;8.90;91.50;;;;;;10424156;28;20757;-62
2024/01/30 05:48:06;;;;;;;12.98;9.77;;;8.90;91.30;;;;;;10420958;28;20273;-59
2024/01/30 05:53:10;;;;;;;10.13;9.13;;;8.90;91.50;;;;;;10416875;28;20304;-59
2024/01/30 05:58:15;;;;;;;9.87;8.10;;;8.80;91.60;;;;;;10425409;28;20277;-60
2024/01/30 06:03:19;;;;;;;9.77;8.37;;;8.80;91.70;;;;;;10416989;28;20228;-61
2024/01/30 06:08:22;;;;;;;12.43;9.05;;;8.80;91.70;;;;;;10419460;28;20227;-60
2024/01/30 06:13:27;;;;;;;9.15;8.00;;;8.90;91.80;;;;;;10422901;28;20239;-62
2024/01/30 06:18:31;;;;;;;8.90;6.73;;;8.90;91.90;;;;;;10424601;28;20254;-61
2024/01/30 06:23:35;;;;;;;9.18;7.05;;;9.00;91.90;;;;;;10422772;28;20219;-60
2024/01/30 06:28:39;;;;;;;11.13;7.00;;;9.10;92.00;;;;;;10429250;28;20199;-59
2024/01/30 06:33:43;;;;;;;10.57;7.95;;;9.10;92.00;;;;;;10419879;28;20269;-60
2024/01/30 06:38:47;;;;;;;14.27;10.70;;;9.20;91.90;;;;;;10421112;28;20251;-59
2024/01/30 06:43:53;;;;;;;11.75;9.55;;;9.20;92.10;;;;;;10421859;28;20212;-60
2024/01/30 06:48:56;;;;;;;13.20;9.80;;;9.20;92.00;;;;;;10425355;28;20200;-60
2024/01/30 06:54:00;;;;;;;13.37;9.77;;;9.20;91.90;;;;;;10425300;28;20227;-61
2024/01/30 06:59:05;;;;;;;12.43;9.20;;;9.30;92.30;;;;;;10427208;28;20212;-60
2024/01/30 07:04:08;;;;;;;10.52;9.43;;;9.30;92.10;;;;;;10418189;28;20228;-62
2024/01/30 07:09:13;;;;;;;12.60;9.55;;;9.30;92.30;;;;;;10426327;28;20200;-64
2024/01/30 07:14:18;;;;;;;11.00;9.37;;;9.30;91.90;;;;;;10423314;28;20212;-61
2024/01/30 07:19:22;;;;;;;9.65;8.25;;;9.30;92.00;;;;;;10424176;28;20227;-62
2024/01/30 07:24:25;;;;;;;9.65;7.80;;;9.30;91.90;;;;;;10433056;28;20777;-62
2024/01/30 07:29:30;;;;;;;11.50;7.53;;;9.30;91.90;;;;;;10423839;28;20204;-62
2024/01/30 07:34:34;;;;;;;12.73;8.47;;;9.30;91.90;;;;;;10428514;28;20261;-62
2024/01/30 07:39:52;;;;;;;12.10;9.20;;;9.30;92.10;;;;;;10427520;28;20497;-65
2024/01/30 07:44:57;;;;;;;11.40;8.75;;;9.30;92.30;;;;;;10434217;28;20216;-66
2024/01/30 07:50:00;;;;;;;11.35;9.10;;;9.40;92.10;;;;;;10430432;28;20254;-64
2024/01/30 07:55:04;;;;;;;11.13;9.70;;;9.40;92.10;;;;;;10447461;28;20297;-64
2024/01/30 08:00:11;;;;;;;12.17;10.50;;;9.40;91.90;;;;;;10421593;28;20270;-65
2024/01/30 08:05:15;;;;;;;15.07;10.27;;;9.50;92.10;;;;;;10427700;28;20219;-63
2024/01/30 08:10:19;;;;;;;12.57;10.73;;;9.50;91.90;;;;;;10428971;28;20209;-64
2024/01/30 08:15:24;;;;;;;15.57;11.18;;;9.60;91.80;;;;;;10428000;28;20247;-65
2024/01/30 08:20:27;;;;;;;12.13;10.57;;;9.60;91.90;;;;;;10424944;28;20660;-63
2024/01/30 08:25:31;;;;;;;14.60;11.18;;;9.70;91.90;;;;;;10414972;28;20220;-64
2024/01/30 08:30:36;;;;;;;12.23;9.77;;;9.70;92.00;;;;;;10415507;28;20683;-61
2024/01/30 08:35:40;;;;;;;12.93;9.35;;;9.80;92.10;;;;;;10415469;28;20642;-64
2024/01/30 08:40:43;;;;;;;11.88;8.75;;;9.80;92.00;;;;;;10415053;28;20254;-63
2024/01/30 08:45:49;;;;;;;8.73;7.57;;;9.90;92.10;;;;;;10415274;28;20224;-62
2024/01/30 08:50:52;;;;;;;10.40;7.43;;;9.90;92.20;;;;;;10414900;28;20729;-63
2024/01/30 08:55:58;;;;;;;9.38;6.53;;;10.00;91.60;;;;;;10414475;28;20216;-63
2024/01/30 09:01:05;;;;;;;9.25;6.63;;;10.10;91.70;;;;;;10427644;28;20211;-64
2024/01/30 09:06:09;;;;;;;7.28;6.38;;;10.20;91.90;;;;;;10454969;28;20212;-61
2024/01/30 09:11:15;;;;;;;8.40;5.80;;;10.30;92.00;;;;;;10430140;28;20201;-62
2024/01/30 09:16:20;;;;;;;8.63;6.00;;;10.40;92.00;;;;;;10421465;28;20238;-62
2024/01/30 09:21:24;;;;;;;6.10;5.10;;;10.50;92.20;;;;;;10429788;28;20223;-61
2024/01/30 09:26:27;;;;;;;8.18;5.50;;;10.60;92.10;;;;;;10428682;28;20251;-65
2024/01/30 09:31:32;;;;;;;6.75;5.35;;;10.70;92.50;;;;;;10417116;28;20264;-65
2024/01/30 09:36:36;;;;;;;6.38;5.53;;;10.80;92.00;;;;;;10429843;28;20215;-65
2024/01/30 09:41:48;;;;;;;9.57;5.65;;;10.90;92.10;;;;;;10420434;28;20200;-65
2024/01/30 09:46:52;;;;;;;7.40;5.38;;;10.90;92.10;;;;;;10425999;28;20984;-65
2024/01/30 09:51:57;;;;;;;8.00;5.57;;;11.00;92.00;;;;;;10415564;28;20204;-66
2024/01/30 09:57:00;;;;;;;8.20;5.63;;;11.10;92.10;;;;;;10422438;28;20959;-66
2024/01/30 10:02:05;;;;;;;7.65;6.03;;;11.20;92.00;;;;;;10428028;28;20675;-64
2024/01/30 10:07:11;;;;;;;7.15;5.20;;;11.30;92.10;;;;;;10424764;28;20216;-65
2024/01/30 10:12:14;;;;;;;5.70;5.10;;;11.40;92.00;;;;;;10418470;28;20943;-65
2024/01/30 10:17:21;;;;;;;8.50;5.25;;;11.50;91.90;;;;;;10424523;28;20547;-65
2024/01/30 10:22:36;;;;;;;8.18;5.53;;;11.60;91.90;;;;;;10420706;28;20219;-65
2024/01/30 10:27:41;;;;;;;6.90;5.00;;;11.70;91.90;;;;;;10428660;28;20246;-65
2024/01/30 10:32:46;;;;;;;5.25;4.75;;;11.80;91.80;;;;;;10420624;28;20269;-64
2024/01/30 10:37:49;;;;;;;8.00;5.25;;;11.90;91.90;;;;;;10419264;28;20204;-63
2024/01/30 10:42:56;;;;;;;5.65;5.07;;;11.90;91.80;;;;;;10433411;28;21829;-63
2024/01/30 10:48:04;;;;;;;9.48;5.78;;;12.10;91.80;;;;;;10422023;28;20224;-66
2024/01/30 10:53:10;;;;;;;7.88;5.05;;;12.10;91.70;;;;;;10423565;28;20216;-64
2024/01/30 10:58:14;;;;;;;7.85;5.50;;;12.30;91.80;;;;;;10422676;28;20278;-64
2024/01/30 11:03:21;;;;;;;9.73;5.20;;;12.40;91.70;;;;;;10434191;28;20234;-64
2024/01/30 11:08:27;;;;;;;9.00;5.60;;;12.50;91.60;;;;;;10437190;28;20265;-64
2024/01/30 11:13:32;;;;;;;7.50;5.82;;;12.60;91.50;;;;;;10416600;28;20259;-64
2024/01/30 11:18:54;;;;;;;11.35;5.55;;;12.60;91.40;;;;;;10426238;28;20197;-64
2024/01/30 11:23:58;;;;;;;9.07;5.90;;;12.70;91.50;;;;;;10434567;28;20373;-64
2024/01/30 11:29:05;;;;;;;9.23;6.35;;;12.80;91.40;;;;;;10425837;28;20220;-64
2024/01/30 11:34:11;;;;;;;9.75;6.07;;;12.80;91.50;;;;;;10426470;28;20266;-64
2024/01/30 11:39:18;;;;;;;8.70;5.65;;;12.90;91.50;;;;;;10428041;28;20200;-65
2024/01/30 11:44:22;;;;;;;12.27;5.50;;;12.90;91.50;;;;;;10416730;28;20228;-64
2024/01/30 11:49:27;;;;;;;8.35;5.85;;;12.90;91.50;;;;;;10417888;28;20235;-66
2024/01/30 11:54:30;;;;;;;8.65;5.97;;;12.90;91.60;;;;;;10426985;28;20636;-65
2024/01/30 11:59:34;;;;;;;9.27;5.85;;;12.90;91.60;;;;;;10420109;28;20262;-64
2024/01/30 12:04:39;;;;;;;9.13;6.10;;;12.90;91.60;;;;;;10438478;28;20215;-64
2024/01/30 12:09:43;;;;;;;9.65;6.22;;;12.80;91.70;;;;;;10433795;28;20220;-65
2024/01/30 12:14:47;;;;;;;8.13;5.90;;;12.90;91.80;;;;;;10424410;28;20274;-64
2024/01/30 12:19:54;;;;;;;10.27;6.10;;;12.80;91.80;;;;;;10422943;28;20192;-64
2024/01/30 12:24:58;;;;;;;11.35;6.47;;;12.80;92.00;;;;;;10422150;28;20283;-64
2024/01/30 12:30:02;;;;;;;10.10;6.72;;;12.80;92.10;;;;;;10422412;28;20255;-64
2024/01/30 12:35:11;;;;;;;10.07;6.38;;;12.80;92.20;;;;;;10431171;28;20734;-64
2024/01/30 12:40:15;;;;;;;10.40;6.80;;;12.90;92.40;;;;;;10421073;28;20680;-64
2024/01/30 12:45:21;;;;;;;10.63;6.63;;;12.90;92.30;;;;;;10420018;28;20248;-64
2024/01/30 12:50:27;;;;;;;10.75;6.40;;;12.90;92.40;;;;;;10433310;28;20239;-66
2024/01/30 12:55:31;;;;;;;10.27;7.10;;;12.90;92.30;;;;;;10431701;28;20227;-64
2024/01/30 13:00:35;;;;;;;9.75;6.10;;;12.90;92.30;;;;;;10435239;28;20292;-65
2024/01/30 13:05:40;;;;;;;11.15;6.57;;;12.90;92.50;;;;;;10417865;28;20228;-64
2024/01/30 13:10:44;;;;;;;11.95;6.55;;;12.90;92.50;;;;;;10451601;28;20188;-64
2024/01/30 13:15:51;;;;;;;12.02;7.03;;;12.80;92.50;;;;;;10453456;28;20215;-64
2024/01/30 13:20:56;;;;;;;8.52;7.03;;;12.80;92.60;;;;;;10451413;28;20393;-63
2024/01/30 13:26:00;;;;;;;10.65;6.95;;;12.70;92.70;;;;;;10451022;28;20216;-63
2024/01/30 13:31:05;;;;;;;11.95;6.95;;;12.70;92.80;;;;;;10413954;28;20199;-61
2024/01/30 13:36:11;;;;;;;10.25;7.38;;;12.70;93.00;;;;;;10451968;28;20275;-64
2024/01/30 13:41:16;;;;;;;12.30;7.35;;;12.60;93.00;;;;;;10446540;28;20257;-64
2024/01/30 13:46:20;;;;;;;10.23;8.15;;;12.60;93.00;;;;;;10406057;28;20243;-65
2024/01/30 13:51:25;;;;;;;11.60;7.20;;;12.60;93.20;;;;;;10407328;28;20270;-65
2024/01/30 13:56:30;;;;;;;14.23;8.70;;;12.60;93.40;;;;;;10410076;28;20212;-65
2024/01/30 14:01:33;;;;;;;11.77;7.80;;;12.50;93.20;;;;;;10428219;28;20297;-63
2024/01/30 14:06:39;;;;;;;9.85;7.90;;;12.50;93.20;;;;;;10431133;28;20243;-66
2024/01/30 14:11:53;;;;;;;10.52;7.82;;;12.50;93.40;;;;;;10423160;28;20229;-65
2024/01/30 14:16:56;;;;;;;12.95;7.75;;;12.50;93.60;;;;;;10429287;28;20192;-64
2024/01/30 14:22:01;;;;;;;10.45;7.70;;;12.50;93.90;;;;;;10449418;28;20192;-62
2024/01/30 14:27:05;;;;;;;13.43;7.32;;;12.50;93.60;;;;;;10417937;28;20270;-63
2024/01/30 14:32:09;;;;;;;11.52;7.25;;;12.60;93.70;;;;;;10417745;28;20196;-64
2024/01/30 14:37:14;;;;;;;10.13;7.00;;;12.60;93.60;;;;;;10445570;28;20253;-63
2024/01/30 14:42:17;;;;;;;8.73;6.93;;;12.60;93.60;;;;;;10432439;28;20285;-63
2024/01/30 14:47:21;;;;;;;13.18;7.85;;;12.60;93.60;;;;;;10437238;28;20224;-64
2024/01/30 14:52:26;;;;;;;11.38;8.00;;;12.60;93.60;;;;;;10442217;28;20219;-64
2024/01/30 14:57:30;;;;;;;13.98;8.18;;;12.60;93.70;;;;;;10420994;28;20559;-64
2024/01/30 15:02:34;;;;;;;11.07;7.70;;;12.60;93.80;;;;;;10416699;28;20298;-64
2024/01/30 15:07:40;;;;;;;10.70;8.43;;;12.60;94.20;;;;;;10417462;28;20262;-64
2024/01/30 15:12:43;;;;;;;11.05;7.78;;;12.60;93.50;;;;;;10417569;28;20340;-66
2024/01/30 15:17:47;;;;;;;8.20;6.93;;;12.60;93.30;;;;;;10416530;28;20920;-63
2024/01/30 15:22:52;;;;;;;10.23;6.70;;;12.60;93.10;;;;;;10434159;28;20257;-63
2024/01/30 15:27:56;;;;;;;11.30;7.53;;;12.60;93.20;;;;;;10422592;28;20213;-62
2024/01/30 15:32:59;;;;;;;11.07;6.75;;;12.50;92.70;;;;;;10415714;28;20216;-62
2024/01/30 15:38:08;;;;;;;8.93;5.43;;;12.50;92.50;;;;;;10415769;28;20192;-64
2024/01/30 15:43:11;;;;;;;7.68;4.32;;;12.40;92.00;;;;;;10430640;28;20223;-64
2024/01/30 15:48:15;;;;;;;8.65;4.72;;;12.40;92.20;;;;;;10434149;28;20545;-62
2024/01/30 15:53:22;;;;;;;5.50;4.18;;;12.30;91.30;;;;;;10411219;28;20216;-64
2024/01/30 15:58:25;;;;;;;8.25;3.72;;;12.20;90.90;;;;;;10410583;28;20204;-66
2024/01/30 16:03:29;;;;;;;6.88;2.92;;;12.20;90.30;;;;;;10414847;28;20637;-65
2024/01/30 16:08:34;;;;;;;4.72;2.40;;;12.10;90.30;;;;;;10414671;28;20220;-63
2024/01/30 16:13:38;;;;;;;3.28;1.88;;;12.00;89.60;;;;;;10414569;28;20228;-66
2024/01/30 16:18:41;;;;;;;5.38;1.85;;;12.00;90.00;;;;;;10413034;28;20200;-65
2024/01/30 16:23:46;;;;;;;3.60;1.70;;;11.90;88.80;;;;;;10434221;28;20212;-66
2024/01/30 16:28:50;;;;;;;4.85;1.73;;;11.90;88.30;;;;;;10409435;28;20239;-65
2024/01/30 16:33:54;;;;;;;3.42;1.20;;;11.80;87.50;;;;;;10414981;28;20216;-64
2024/01/30 16:38:59;;;;;;;3.40;1.30;;;11.80;87.60;;;;;;10412015;28;20200;-64
2024/01/30 16:44:03;;;;;;;7.18;1.70;;;11.70;86.90;;;;;;10413023;28;20270;-63
2024/01/30 16:49:06;;;;;;;4.50;1.48;;;11.70;86.10;;;;;;10412896;28;20478;-63
2024/01/30 16:54:12;;;;;;;4.38;1.67;;;11.60;86.40;;;;;;10412934;28;20250;-65
2024/01/30 16:59:15;;;;;;;2.55;1.52;;;11.60;86.10;;;;;;10412888;28;20246;-62
2024/01/30 17:04:21;;;;;;;4.97;1.50;;;11.50;86.50;;;;;;10412420;28;20223;-62
2024/01/30 17:09:27;;;;;;;3.92;1.60;;;11.50;86.80;;;;;;10412403;28;20258;-63
2024/01/30 17:14:30;;;;;;;3.30;1.15;;;11.40;86.20;;;;;;10435542;28;20231;-66
2024/01/30 17:19:34;;;;;;;3.13;1.50;;;11.40;86.50;;;;;;10431937;28;20193;-64
2024/01/30 17:24:39;;;;;;;4.55;1.75;;;11.40;86.10;;;;;;10418773;28;20714;-63
2024/01/30 17:29:52;;;;;;;4.60;1.33;;;11.30;86.10;;;;;;10448443;28;20222;-65
2024/01/30 17:34:56;;;;;;;4.05;1.50;;;11.30;84.90;;;;;;10434976;28;20223;-64
2024/01/30 17:40:01;;;;;;;1.98;1.17;;;11.30;84.10;;;;;;10449215;28;20662;-64
2024/01/30 17:45:06;;;;;;;4.32;1.95;;;11.30;84.20;;;;;;10452662;28;20220;-65
2024/01/30 17:50:11;;;;;;;3.67;2.20;;;11.20;84.80;;;;;;10452220;28;20223;-64
2024/01/30 17:55:16;;;;;;;5.53;3.10;;;11.20;85.00;;;;;;10450413;28;20223;-62
2024/01/30 18:00:20;;;;;;;6.03;3.47;;;11.10;86.10;;;;;;10451905;28;20225;-63
2024/01/30 18:09:04;;;;;;;8.13;3.63;;;10.90;87.80;;;;;;10655160;27;20579;-64
2024/01/30 18:14:08;;;;;;;5.47;3.63;;;10.80;88.70;;;;;;10623491;27;20786;-65
2024/01/30 18:19:11;;;;;;;5.17;3.30;;;10.70;88.90;;;;;;10596538;28;20197;-65
2024/01/30 18:24:16;;;;;;;4.80;2.83;;;10.60;88.60;;;;;;10590700;28;20227;-62
2024/01/30 18:29:29;;;;;;;3.60;2.50;;;10.60;88.20;;;;;;10606896;27;20199;-61
2024/01/30 18:34:32;;;;;;;4.28;2.42;;;10.60;87.60;;;;;;10616086;28;20213;-65
2024/01/30 18:39:40;;;;;;;3.83;2.65;;;10.50;87.40;;;;;;10603255;27;20246;-64
2024/01/30 18:44:44;;;;;;;6.22;2.90;;;10.50;87.60;;;;;;10599147;28;20552;-62
2024/01/30 18:49:50;;;;;;;4.97;3.10;;;10.50;87.50;;;;;;10609976;28;20742;-62
2024/01/30 18:54:56;;;;;;;3.93;3.10;;;10.50;87.30;;;;;;10613175;28;20270;-65
2024/01/30 18:59:59;;;;;;;4.35;2.70;;;10.40;87.10;;;;;;10613176;28;20197;-64
2024/01/30 19:05:03;;;;;;;3.92;2.78;;;10.40;86.80;;;;;;10612298;28;20221;-63
2024/01/30 19:10:10;;;;;;;3.50;3.20;;;10.40;86.70;;;;;;10597463;28;20197;-65
2024/01/30 19:15:14;;;;;;;5.47;3.22;;;10.40;86.80;;;;;;10593351;28;20251;-64
2024/01/30 19:20:18;;;;;;;3.17;2.88;;;10.40;86.60;;;;;;10558281;28;20206;-63
2024/01/30 19:25:23;;;;;;;4.88;4.30;;;10.30;86.30;;;;;;10568970;28;20218;-65
2024/01/30 19:30:27;;;;;;;4.57;3.50;;;10.30;86.60;;;;;;10568143;28;20250;-64
2024/01/30 19:35:30;;;;;;;5.47;3.70;;;10.30;86.50;;;;;;10561682;28;20226;-64
2024/01/30 19:40:35;;;;;;;4.37;3.67;;;10.30;86.60;;;;;;10560332;28;20663;-64
2024/01/30 19:45:39;;;;;;;6.37;4.20;;;10.30;86.90;;;;;;10550627;28;20717;-65
2024/01/30 19:50:42;;;;;;;5.80;4.53;;;10.20;87.10;;;;;;10560923;28;20198;-65
2024/01/30 19:55:47;;;;;;;6.70;4.37;;;10.20;87.40;;;;;;10559050;28;20268;-65
2024/01/30 20:00:52;;;;;;;5.73;4.60;;;10.10;87.60;;;;;;10559216;28;20228;-64
2024/01/30 20:05:56;;;;;;;6.57;4.40;;;10.10;87.90;;;;;;10555692;28;20689;-63
2024/01/30 20:11:02;;;;;;;6.43;5.20;;;10.10;88.30;;;;;;10556803;28;20393;-64
2024/01/30 20:16:07;;;;;;;6.72;5.60;;;10.10;88.50;;;;;;10555089;28;20259;-63
2024/01/30 20:21:10;;;;;;;7.77;5.83;;;10.00;88.70;;;;;;10566120;28;20202;-65
2024/01/30 20:26:15;;;;;;;8.97;6.63;;;10.00;89.10;;;;;;10555972;28;20621;-63
2024/01/30 20:31:19;;;;;;;7.43;6.53;;;10.00;90.00;;;;;;10557488;28;20222;-64
2024/01/30 20:36:23;;;;;;;8.00;6.97;;;9.90;90.70;;;;;;10553130;28;20267;-63
2024/01/30 20:41:27;;;;;;;9.13;8.00;;;9.90;90.80;;;;;;10554757;28;20229;-63
2024/01/30 20:46:31;;;;;;;8.50;7.60;;;9.90;91.00;;;;;;10553787;28;20244;-64
2024/01/30 20:51:35;;;;;;;9.80;8.17;;;9.80;90.80;;;;;;10562637;28;20558;-63
2024/01/30 20:56:40;;;;;;;12.07;8.40;;;9.80;91.10;;;;;;10558538;28;20682;-64
2024/01/30 21:01:43;;;;;;;10.05;8.45;;;9.80;91.00;;;;;;10553505;28;20251;-64
2024/01/30 21:06:47;;;;;;;11.77;9.37;;;9.80;91.20;;;;;;10544490;28;20249;-64
2024/01/30 21:11:52;;;;;;;11.37;9.70;;;9.80;91.20;;;;;;10551157;28;20220;-64
2024/01/30 21:16:56;;;;;;;11.45;9.60;;;9.80;91.40;;;;;;10551376;28;20198;-63
2024/01/30 21:22:00;;;;;;;12.37;9.80;;;9.80;91.10;;;;;;10555887;28;20227;-64
2024/01/30 21:27:05;;;;;;;12.03;10.57;;;9.80;91.30;;;;;;10543960;28;20325;-64
2024/01/30 21:32:08;;;;;;;14.03;12.23;;;9.80;91.40;;;;;;10551425;28;20186;-63
2024/01/30 21:37:12;;;;;;;15.47;12.93;;;9.80;91.60;;;;;;10553637;28;20210;-65
2024/01/30 21:42:18;;;;;;;14.70;12.97;;;9.80;91.80;;;;;;10553234;28;20252;-64
2024/01/30 21:47:21;;;;;;;17.50;12.30;;;9.70;92.20;;;;;;10549395;28;20258;-64
2024/01/30 21:52:25;;;;;;;15.13;12.57;;;9.60;92.20;;;;;;10548687;28;20705;-64
2024/01/30 21:57:30;;;;;;;17.03;13.77;;;9.60;92.30;;;;;;10552133;28;20208;-64
2024/01/30 22:02:34;;;;;;;18.03;14.40;;;9.60;92.20;;;;;;10550481;28;20244;-63
2024/01/30 22:07:37;;;;;;;17.20;13.60;;;9.60;92.40;;;;;;10553613;28;20241;-63
2024/01/30 22:12:42;;;;;;;16.00;13.83;;;9.50;92.40;;;;;;10554361;28;20222;-64
2024/01/30 22:17:46;;;;;;;17.07;13.47;;;9.50;92.70;;;;;;10546046;28;20286;-63
2024/01/30 22:22:50;;;;;;;17.67;14.70;;;9.50;92.80;;;;;;10546937;28;20213;-63
2024/01/30 22:27:55;;;;;;;18.00;14.93;;;9.50;92.50;;;;;;10551388;28;20937;-65
2024/01/30 22:32:58;;;;;;;19.40;14.97;;;9.50;92.60;;;;;;10547326;28;20248;-66
2024/01/30 22:38:06;;;;;;;18.00;15.10;;;9.50;92.70;;;;;;10546334;28;20231;-66
2024/01/30 22:43:11;;;;;;;19.47;15.73;;;9.50;93.30;;;;;;10553410;28;20245;-64
2024/01/30 22:48:15;;;;;;;18.73;15.77;;;9.50;92.90;;;;;;10532339;28;20647;-64
2024/01/30 22:53:18;;;;;;;18.83;15.60;;;9.50;93.20;;;;;;10520741;28;20214;-63
2024/01/30 22:58:23;;;;;;;21.30;16.83;;;9.50;93.00;;;;;;10520894;28;20199;-65
2024/01/30 23:03:27;;;;;;;19.87;16.97;;;9.50;92.90;;;;;;10523931;28;20226;-65
2024/01/30 23:08:31;;;;;;;13.47;10.80;;;9.50;92.90;;;;;;10512527;28;20265;-64
2024/01/30 23:13:38;;;;;;;9.60;7.20;;;9.50;93.50;;;;;;10525866;28;20217;-65
2024/01/30 23:18:42;;;;;;;11.00;8.53;;;9.40;93.10;;;;;;10532404;28;20195;-64
2024/01/30 23:23:46;;;;;;;10.50;8.20;;;9.40;93.30;;;;;;10518741;28;20576;-65
2024/01/30 23:28:51;;;;;;;12.23;9.00;;;9.40;93.20;;;;;;10523861;28;20884;-65
2024/01/30 23:33:55;;;;;;;11.40;6.47;;;9.30;93.40;;;;;;10524381;28;20218;-64
2024/01/30 23:38:59;;;;;;;6.70;4.80;;;9.30;93.80;;;;;;10524268;28;20202;-64
2024/01/30 23:44:05;;;;;;;7.53;3.90;;;9.20;93.90;;;;;;10521898;28;20260;-65
2024/01/30 23:49:09;;;;;;;9.83;4.17;;;9.10;94.00;;;;;;10523628;28;20247;-64
2024/01/30 23:54:12;;;;;;;6.77;4.80;;;9.10;93.90;;;;;;10525298;28;20214;-67
2024/01/30 23:59:17;;;;;;;10.87;5.23;;;9.10;93.90;;;;;;10528611;28;20224;-65
